Time;durP1;ratioP1;P1;durP2;ratioP2;P2;SDS_P1;SDS_P2;PMS_P1;PMS_P2;Temp;Humidity;BMP_temperature;BMP_pressure;BME280_temperature;BME280_humidity;BME280_pressure;Samples;Min_cycle;Max_cycle;Signal;HPM_P1;HPM_P2
2022/04/29 04:03:05;;;;;;;7.25;4.20;;;;;;;13.51;54.76;101459.22;5642575;31;41510;-55
2022/04/29 04:09:30;;;;;;;7.45;4.28;;;;;;;13.00;58.07;101456.59;5632822;31;34270;-56
2022/04/29 04:12:46;;;;;;;8.80;4.45;;;;;;;12.91;57.08;101459.00;5625348;31;33440;-55
2022/04/29 04:15:51;;;;;;;7.72;4.07;;;;;;;12.87;57.83;101458.72;5632698;31;33301;-55
2022/04/29 04:18:53;;;;;;;7.37;4.53;;;;;;;13.01;57.49;101459.00;5641510;31;33204;-55
2022/04/29 04:21:55;;;;;;;7.82;4.53;;;;;;;13.08;56.94;101456.84;5626528;31;34239;-55
2022/04/29 04:24:59;;;;;;;7.90;4.65;;;;;;;13.19;58.93;101476.50;5635489;31;34223;-55
2022/04/29 04:28:01;;;;;;;7.35;4.85;;;;;;;13.11;58.08;101468.94;5623760;31;34531;-56
2022/04/29 04:31:04;;;;;;;7.70;4.57;;;;;;;13.12;58.78;101468.69;5631214;31;34271;-55
2022/04/29 04:37:29;;;;;;;9.90;4.57;;;;;;;13.24;57.97;101470.28;5622599;31;34312;-55
2022/04/29 04:40:31;;;;;;;7.57;4.60;;;;;;;13.31;59.03;101476.22;5634207;31;34426;-55
2022/04/29 04:43:35;;;;;;;11.95;5.68;;;;;;;13.30;58.76;101485.41;5642011;31;34381;-55
2022/04/29 04:46:37;;;;;;;9.38;5.03;;;;;;;13.35;59.02;101480.00;5631662;31;33353;-55
2022/04/29 04:49:42;;;;;;;5.45;4.57;;;;;;;13.36;58.14;101478.94;5626755;31;33347;-55
2022/04/29 04:52:45;;;;;;;7.20;5.15;;;;;;;13.35;58.65;101482.72;5636631;31;33405;-56
2022/04/29 04:55:48;;;;;;;8.73;5.00;;;;;;;13.39;58.60;101481.88;5622544;31;33305;-55
2022/04/29 04:58:50;;;;;;;6.82;4.30;;;;;;;13.39;58.97;101489.97;5622407;31;33385;-56
2022/04/29 05:01:53;;;;;;;5.25;4.10;;;;;;;13.54;58.83;101489.16;5629861;31;33287;-56
2022/04/29 05:04:58;;;;;;;8.82;4.53;;;;;;;13.59;58.62;101491.00;5639933;31;34364;-55
2022/04/29 05:08:01;;;;;;;7.75;4.45;;;;;;;13.69;58.14;101484.78;5636004;31;33157;-55
2022/04/29 05:11:04;;;;;;;9.10;4.65;;;;;;;13.77;57.24;101485.00;5635522;31;33419;-55
2022/04/29 05:14:06;;;;;;;11.15;4.50;;;;;;;13.96;55.52;101493.31;5626328;31;33947;-56
2022/04/29 05:17:09;;;;;;;7.22;4.55;;;;;;;14.17;53.14;101491.34;5608600;31;33303;-56
2022/04/29 05:20:15;;;;;;;7.22;4.28;;;;;;;14.40;49.53;101489.88;5608786;31;33115;-56
2022/04/29 05:23:18;;;;;;;9.07;4.50;;;;;;;14.64;49.83;101495.44;5610464;31;33289;-55
2022/04/29 05:26:24;;;;;;;6.87;4.70;;;;;;;14.84;49.53;101497.19;5611394;31;33368;-55
2022/04/29 05:29:28;;;;;;;7.78;4.07;;;;;;;14.90;53.16;101497.94;5608298;31;33230;-55
2022/04/29 05:32:32;;;;;;;8.60;4.68;;;;;;;15.09;48.85;101498.06;5609087;31;34228;-55
2022/04/29 05:35:39;;;;;;;8.32;4.50;;;;;;;15.31;47.02;101501.13;5625731;31;32365;-56
2022/04/29 05:42:14;;;;;;;7.62;4.62;;;;;;;15.60;45.45;101497.59;5607805;31;33602;-56
2022/04/29 05:45:17;;;;;;;12.07;4.60;;;;;;;15.69;45.31;101494.00;5608367;31;33660;-56
2022/04/29 05:48:19;;;;;;;7.43;4.53;;;;;;;15.73;44.21;101486.94;5611678;31;33207;-55
2022/04/29 05:51:22;;;;;;;10.73;5.18;;;;;;;15.82;43.43;101489.78;5607097;31;33674;-56
2022/04/29 05:54:25;;;;;;;8.93;4.93;;;;;;;15.81;49.04;101490.09;5612840;31;30969;-56
2022/04/29 05:57:28;;;;;;;6.53;4.45;;;;;;;16.03;44.29;101495.78;5610240;31;33224;-56
2022/04/29 06:00:31;;;;;;;7.93;4.43;;;;;;;16.19;46.46;101501.78;5615348;31;33766;-56
2022/04/29 06:03:35;;;;;;;5.97;4.32;;;;;;;16.17;41.47;101504.00;5614625;31;33306;-55
2022/04/29 06:06:37;;;;;;;9.75;4.37;;;;;;;16.29;43.80;101512.50;5626201;31;34092;-56
2022/04/29 06:09:39;;;;;;;8.75;4.53;;;;;;;16.38;42.79;101505.31;5610595;31;33369;-55
2022/04/29 06:12:43;;;;;;;7.72;4.47;;;;;;;16.57;44.06;101515.34;5612230;31;33442;-55
2022/04/29 06:15:46;;;;;;;6.78;4.10;;;;;;;16.60;41.54;101515.56;5617483;31;33637;-56
2022/04/29 06:18:50;;;;;;;5.35;4.05;;;;;;;16.69;42.49;101518.44;5610370;31;33294;-55
2022/04/29 06:21:53;;;;;;;4.85;3.92;;;;;;;16.71;39.38;101518.13;5607821;31;34147;-55
2022/04/29 06:24:56;;;;;;;7.30;4.50;;;;;;;16.68;40.37;101517.59;5614910;31;33744;-56
2022/04/29 06:28:14;;;;;;;6.95;3.95;;;;;;;16.64;39.00;101518.50;5606938;31;32241;-56
2022/04/29 06:31:17;;;;;;;7.82;4.15;;;;;;;16.67;38.01;101518.72;5622394;31;34285;-55
2022/04/29 06:34:22;;;;;;;5.15;3.58;;;;;;;16.62;38.59;101518.81;5608627;31;33220;-55
2022/04/29 06:37:24;;;;;;;8.25;4.30;;;;;;;16.65;38.22;101520.09;5608103;31;34389;-56
2022/04/29 06:40:28;;;;;;;7.03;3.72;;;;;;;16.75;40.20;101519.19;5608466;31;33484;-56
2022/04/29 06:43:31;;;;;;;12.10;4.07;;;;;;;16.90;44.96;101518.97;5610954;31;33313;-56
2022/04/29 06:46:52;;;;;;;8.85;4.07;;;;;;;17.11;43.83;101527.56;5616172;31;35469;-55
2022/04/29 06:49:58;;;;;;;8.65;3.87;;;;;;;16.81;38.62;101507.97;5624644;31;31634;-57
2022/04/29 06:53:03;;;;;;;5.95;3.83;;;;;;;17.02;40.89;101518.47;5615968;31;34177;-56
2022/04/29 06:56:05;;;;;;;6.62;3.95;;;;;;;16.85;39.46;101511.72;5616974;31;33266;-56
2022/04/29 06:59:08;;;;;;;6.43;4.10;;;;;;;16.88;42.12;101515.72;5606913;31;33178;-55
2022/04/29 07:02:11;;;;;;;7.45;4.07;;;;;;;16.88;38.87;101515.72;5606421;31;35064;-56
2022/04/29 07:05:13;;;;;;;8.05;4.53;;;;;;;16.99;39.77;101514.47;5609706;31;33349;-56
2022/04/29 07:08:15;;;;;;;8.05;4.60;;;;;;;16.98;38.50;101515.56;5610620;31;33418;-56
2022/04/29 07:11:22;;;;;;;6.68;4.07;;;;;;;17.09;39.22;101514.31;5617070;31;33820;-55
2022/04/29 07:14:25;;;;;;;6.43;3.90;;;;;;;17.18;37.64;101519.03;5614864;31;33142;-57
2022/04/29 07:17:28;;;;;;;11.85;4.05;;;;;;;17.17;40.74;101517.44;5616645;31;33558;-55
2022/04/29 07:20:30;;;;;;;6.47;4.00;;;;;;;17.20;37.60;101514.94;5615256;31;33748;-56
2022/04/29 07:23:33;;;;;;;8.63;4.15;;;;;;;17.22;40.05;101511.91;5615523;31;33704;-56
2022/04/29 07:26:36;;;;;;;9.32;4.60;;;;;;;17.26;36.91;101518.37;5609522;31;33659;-56
2022/04/29 07:29:39;;;;;;;7.22;4.20;;;;;;;17.14;38.50;101510.72;5618289;31;33524;-56
2022/04/29 07:32:42;;;;;;;5.10;3.75;;;;;;;17.28;37.98;101513.44;5610318;31;32776;-55
2022/04/29 07:42:32;;;;;;;6.30;3.85;;;;;;;17.33;37.63;101510.66;5607981;31;33384;-56
2022/04/29 07:45:36;;;;;;;7.75;4.10;;;;;;;17.29;37.37;101512.38;5616840;31;33330;-56
2022/04/29 07:48:43;;;;;;;6.45;4.10;;;;;;;17.44;37.69;101517.50;5607852;31;34624;-57
2022/04/29 07:51:46;;;;;;;6.50;4.20;;;;;;;17.54;43.01;101511.09;5615219;31;34249;-55
2022/04/29 07:54:49;;;;;;;5.57;4.12;;;;;;;17.69;38.53;101505.41;5626208;31;32351;-55
2022/04/29 07:57:52;;;;;;;5.43;3.65;;;;;;;17.44;36.21;101500.44;5618092;31;34263;-55
2022/04/29 08:00:56;;;;;;;4.50;3.65;;;;;;;17.30;38.12;101512.06;5614159;31;33353;-55
2022/04/29 08:04:14;;;;;;;7.53;3.95;;;;;;;17.47;37.30;101499.84;5616514;31;33406;-56
2022/04/29 08:07:17;;;;;;;6.85;4.47;;;;;;;17.52;39.70;101510.59;5610109;31;33693;-55
2022/04/29 08:10:20;;;;;;;7.37;4.25;;;;;;;17.67;39.63;101510.31;5610390;31;34330;-55
2022/04/29 08:13:24;;;;;;;5.80;3.37;;;;;;;17.78;37.74;101500.91;5612090;31;31707;-56
2022/04/29 08:16:32;;;;;;;8.48;4.22;;;;;;;17.80;39.04;101493.25;5614426;31;32343;-56
2022/04/29 08:19:35;;;;;;;6.68;4.15;;;;;;;18.03;40.50;101496.06;5616031;31;33574;-55
2022/04/29 08:22:39;;;;;;;6.90;3.85;;;;;;;17.80;36.14;101497.87;5609172;31;32260;-55
2022/04/29 08:25:42;;;;;;;7.47;4.00;;;;;;;17.83;37.21;101497.28;5608308;31;33469;-55
2022/04/29 08:28:45;;;;;;;5.78;4.00;;;;;;;17.82;36.00;101485.63;5618087;31;34321;-55
2022/04/29 08:31:48;;;;;;;7.40;4.07;;;;;;;18.02;41.54;101491.75;5615261;31;33618;-55
2022/04/29 08:34:51;;;;;;;6.00;4.10;;;;;;;17.99;35.73;101481.50;5610506;31;34256;-56
2022/04/29 08:37:54;;;;;;;8.75;4.00;;;;;;;18.02;36.93;101502.59;5615670;31;33641;-56
2022/04/29 08:41:00;;;;;;;6.37;3.85;;;;;;;17.98;37.17;101491.56;5618540;31;34174;-55
2022/04/29 08:44:07;;;;;;;5.90;3.62;;;;;;;17.96;34.66;101479.41;5609411;31;33265;-55
2022/04/29 08:47:14;;;;;;;5.37;3.83;;;;;;;18.04;36.53;101492.25;5614685;31;34007;-56
2022/04/29 08:50:20;;;;;;;8.45;3.70;;;;;;;18.11;35.60;101481.78;5612925;31;33227;-55
2022/04/29 08:53:22;;;;;;;5.50;3.57;;;;;;;18.20;41.46;101481.88;5612687;31;33590;-56
2022/04/29 08:59:47;;;;;;;6.78;3.87;;;;;;;18.40;35.40;101469.75;5618776;31;33697;-56
2022/04/29 09:02:50;;;;;;;8.80;3.70;;;;;;;18.43;31.58;101463.72;5611113;31;33095;-56
2022/04/29 09:05:52;;;;;;;6.15;3.85;;;;;;;18.48;35.14;101463.63;5616051;31;33687;-56
2022/04/29 09:09:07;;;;;;;6.47;3.78;;;;;;;18.50;37.28;101467.59;5628011;31;33329;-55
2022/04/29 09:12:15;;;;;;;6.85;3.95;;;;;;;18.60;39.32;101461.13;5622211;31;33685;-56
2022/04/29 09:15:19;;;;;;;5.75;3.50;;;;;;;18.64;45.12;101458.59;5614383;31;34344;-56
2022/04/29 09:18:49;;;;;;;5.82;3.50;;;;;;;18.72;37.74;101452.47;5621895;31;33587;-56
2022/04/29 09:22:07;;;;;;;5.95;3.40;;;;;;;18.74;35.77;101450.25;5615734;31;33854;-56
2022/04/29 09:25:12;;;;;;;6.07;3.50;;;;;;;18.65;33.34;101452.88;5623231;31;34378;-55
2022/04/29 09:28:14;;;;;;;6.45;3.62;;;;;;;18.67;31.02;101442.50;5617817;31;34504;-56
2022/04/29 09:31:20;;;;;;;7.68;3.50;;;;;;;18.77;37.75;101441.47;5617703;31;33350;-56
2022/04/29 09:34:45;;;;;;;9.73;3.95;;;;;;;18.97;39.37;101442.88;5610581;31;33294;-56
2022/04/29 09:41:21;;;;;;;6.75;3.35;;;;;;;18.87;32.50;101443.94;5614004;31;33729;-56
2022/04/29 09:44:30;;;;;;;5.65;3.78;;;;;;;18.62;31.37;101442.63;5611971;31;33590;-56
2022/04/29 09:47:32;;;;;;;5.82;3.40;;;;;;;18.49;30.66;101441.56;5617057;31;34220;-55
2022/04/29 09:50:52;;;;;;;6.07;3.12;;;;;;;18.57;32.78;101445.47;5617611;31;33813;-56
2022/04/29 09:54:16;;;;;;;5.72;3.75;;;;;;;18.69;32.39;101437.56;5613110;31;33318;-55
2022/04/29 09:57:24;;;;;;;9.02;3.62;;;;;;;18.59;30.98;101437.81;5608363;31;34294;-56
2022/04/29 10:00:26;;;;;;;5.37;3.47;;;;;;;18.49;32.08;101436.16;5617898;31;34320;-56
2022/04/29 10:03:29;;;;;;;4.78;3.70;;;;;;;18.46;32.57;101433.25;5614307;31;33572;-56
2022/04/29 10:06:33;;;;;;;6.28;3.35;;;;;;;18.28;33.25;101430.41;5609932;31;33681;-56
2022/04/29 10:09:38;;;;;;;7.57;3.15;;;;;;;18.24;33.49;101421.22;5623143;31;34306;-56
2022/04/29 10:12:47;;;;;;;6.78;3.25;;;;;;;18.46;32.88;101427.81;5617549;31;34121;-55
2022/04/29 10:15:52;;;;;;;5.53;2.90;;;;;;;18.41;31.89;101427.91;5607755;31;33352;-55
2022/04/29 10:22:32;;;;;;;5.40;3.40;;;;;;;18.54;28.94;101418.91;5614953;31;33444;-55
2022/04/29 10:25:38;;;;;;;6.93;3.45;;;;;;;18.78;33.18;101421.38;5619742;31;34307;-56
2022/04/29 10:28:41;;;;;;;6.28;3.33;;;;;;;18.82;34.06;101419.63;5616487;31;34433;-55
2022/04/29 10:32:04;;;;;;;6.18;3.95;;;;;;;18.78;30.58;101415.94;5607988;31;34256;-55
2022/04/29 10:35:53;;;;;;;11.40;3.67;;;;;;;18.77;29.58;101406.16;5621328;31;34429;-55
2022/04/29 10:39:01;;;;;;;4.60;3.17;;;;;;;18.97;30.67;101402.13;5612100;31;32900;-56
2022/04/29 10:42:09;;;;;;;6.62;3.92;;;;;;;18.99;29.42;101410.78;5618757;31;34321;-55
2022/04/29 10:45:12;;;;;;;5.05;3.28;;;;;;;19.07;34.49;101401.84;5624488;31;34350;-55
2022/04/29 10:48:33;;;;;;;5.50;3.28;;;;;;;19.05;30.21;101401.38;5615362;31;34110;-55
2022/04/29 10:51:49;;;;;;;7.62;3.78;;;;;;;19.09;36.64;101398.84;5601594;31;34241;-55
2022/04/29 10:54:58;;;;;;;5.25;3.90;;;;;;;19.13;33.48;101405.25;5612361;31;34307;-56
2022/04/29 10:58:18;;;;;;;5.80;3.28;;;;;;;19.12;31.08;101387.34;5607584;31;33385;-56
2022/04/29 11:01:27;;;;;;;6.65;3.33;;;;;;;18.97;32.65;101392.06;5623743;31;34638;-56
2022/04/29 11:04:30;;;;;;;6.68;3.65;;;;;;;19.08;33.53;101381.72;5610269;31;33307;-55
2022/04/29 11:07:36;;;;;;;7.03;4.10;;;;;;;19.25;37.19;101373.63;5616973;31;33559;-56
2022/04/29 11:10:59;;;;;;;4.90;3.37;;;;;;;19.24;36.54;101363.09;5616839;31;33743;-56
2022/04/29 11:14:04;;;;;;;5.63;3.40;;;;;;;19.25;34.44;101373.63;5609968;31;35128;-56
2022/04/29 11:17:12;;;;;;;5.45;3.40;;;;;;;19.47;36.40;101367.31;5609751;31;33544;-56
2022/04/29 11:20:23;;;;;;;4.50;3.30;;;;;;;19.29;30.75;101367.56;5618338;31;33749;-56
2022/04/29 11:26:50;;;;;;;6.87;3.42;;;;;;;19.06;35.43;101364.94;5615286;31;33753;-56
2022/04/29 11:29:56;;;;;;;6.72;3.17;;;;;;;19.23;36.23;101366.91;5607001;31;34401;-56
2022/04/29 11:33:00;;;;;;;7.10;3.53;;;;;;;19.30;32.59;101358.28;5625748;31;33670;-56
2022/04/29 11:36:11;;;;;;;7.68;3.70;;;;;;;19.25;34.39;101349.16;5610256;31;34468;-56
2022/04/29 11:39:17;;;;;;;5.70;3.42;;;;;;;19.34;35.98;101342.97;5613668;31;34030;-56
2022/04/29 11:42:20;;;;;;;6.32;3.35;;;;;;;19.48;32.95;101344.44;5619833;31;33728;-56
2022/04/29 11:45:23;;;;;;;9.48;4.05;;;;;;;19.50;29.66;101338.66;5609804;31;34329;-55
2022/04/29 11:48:25;;;;;;;4.40;3.20;;;;;;;19.56;37.68;101342.03;5619912;31;34762;-56
2022/04/29 11:51:30;;;;;;;6.70;3.17;;;;;;;19.54;29.44;101333.44;5617779;31;33843;-56
2022/04/29 11:54:34;;;;;;;6.22;3.85;;;;;;;19.52;32.27;101344.59;5619979;31;34115;-57
2022/04/29 11:57:47;;;;;;;5.22;3.12;;;;;;;19.35;31.77;101334.50;5611320;31;34350;-55
2022/04/29 12:00:51;;;;;;;9.23;3.60;;;;;;;19.28;31.35;101327.91;5616308;31;33764;-56
2022/04/29 12:03:55;;;;;;;5.82;3.60;;;;;;;19.29;35.06;101318.63;5614359;31;34418;-56
2022/04/29 12:06:58;;;;;;;6.12;3.28;;;;;;;19.24;32.24;101320.41;5610227;31;31951;-56
2022/04/29 12:10:00;;;;;;;4.35;3.20;;;;;;;19.28;31.24;101317.03;5614611;31;34410;-56
2022/04/29 12:13:04;;;;;;;3.75;2.75;;;;;;;19.35;28.08;101307.31;5607187;31;33354;-56
2022/04/29 12:16:07;;;;;;;3.15;2.85;;;;;;;19.25;27.31;101302.97;5623566;31;33330;-55
2022/04/29 12:19:21;;;;;;;7.40;3.33;;;;;;;19.32;27.03;101301.69;5607096;31;33721;-55
2022/04/29 12:22:29;;;;;;;7.00;3.30;;;;;;;19.40;29.00;101306.34;5610599;31;34451;-56
2022/04/29 12:25:42;;;;;;;5.53;3.75;;;;;;;19.42;28.93;101306.84;5614615;31;33619;-55
2022/04/29 12:28:57;;;;;;;5.53;3.50;;;;;;;19.40;27.60;101300.91;5612857;31;33192;-56
2022/04/29 12:35:28;;;;;;;5.05;3.58;;;;;;;19.50;28.88;101292.44;5628849;31;33664;-55
2022/04/29 12:38:35;;;;;;;4.50;2.87;;;;;;;19.62;27.69;101289.91;5622684;31;33398;-56
2022/04/29 12:41:37;;;;;;;4.90;3.15;;;;;;;19.63;28.51;101288.81;5613932;31;33639;-55
2022/04/29 12:48:16;;;;;;;4.62;3.08;;;;;;;19.69;28.30;101282.09;5629121;31;33597;-55
2022/04/29 12:51:24;;;;;;;3.70;2.85;;;;;;;19.82;28.21;101276.81;5622919;31;33466;-55
2022/04/29 12:54:27;;;;;;;4.68;3.10;;;;;;;19.91;28.21;101278.41;5611847;31;33566;-56
2022/04/29 12:57:32;;;;;;;6.60;3.50;;;;;;;19.89;30.71;101272.47;5609671;31;34217;-55
2022/04/29 13:00:37;;;;;;;4.70;3.40;;;;;;;19.81;27.77;101267.06;5614261;31;33739;-55
2022/04/29 13:03:40;;;;;;;4.60;3.37;;;;;;;19.75;27.39;101260.97;5627618;31;34308;-56
2022/04/29 13:06:44;;;;;;;4.93;3.00;;;;;;;19.59;28.41;101257.91;5649265;31;33708;-55
2022/04/29 13:09:46;;;;;;;6.00;2.92;;;;;;;19.58;28.96;101253.59;5617330;31;34290;-56
2022/04/29 13:12:49;;;;;;;6.10;3.17;;;;;;;19.60;28.79;101247.81;5612613;31;34421;-57
2022/04/29 13:15:53;;;;;;;4.25;3.05;;;;;;;19.75;28.38;101252.03;5615445;31;33353;-57
2022/04/29 13:18:56;;;;;;;5.32;3.22;;;;;;;19.83;27.11;101245.75;5616459;31;33922;-57
2022/04/29 13:21:58;;;;;;;4.93;3.47;;;;;;;19.79;27.69;101240.16;5612859;31;34375;-56
2022/04/29 13:25:01;;;;;;;5.35;3.37;;;;;;;19.75;27.63;101243.84;5616760;31;33363;-55
2022/04/29 13:28:05;;;;;;;4.90;3.30;;;;;;;19.69;29.57;101238.56;5619484;31;33259;-56
2022/04/29 13:31:10;;;;;;;4.82;3.45;;;;;;;19.63;28.48;101236.28;5613777;31;33345;-56
2022/04/29 13:34:12;;;;;;;6.22;3.42;;;;;;;19.51;28.24;101242.38;5612755;31;33695;-56
2022/04/29 13:37:14;;;;;;;7.32;3.20;;;;;;;19.54;30.72;101238.25;5614614;31;33314;-56
2022/04/29 13:40:16;;;;;;;5.75;3.12;;;;;;;19.44;29.50;101232.00;5619324;31;33773;-56
2022/04/29 13:43:22;;;;;;;6.15;3.55;;;;;;;19.41;29.43;101227.19;5619295;31;33321;-56
2022/04/29 13:46:24;;;;;;;6.53;3.25;;;;;;;19.41;27.90;101226.37;5608205;31;34024;-56
2022/04/29 13:49:27;;;;;;;9.73;3.62;;;;;;;19.45;30.41;101222.69;5607652;31;34315;-56
2022/04/29 13:55:52;;;;;;;9.15;3.70;;;;;;;19.75;28.82;101214.72;5612541;31;34401;-55
2022/04/29 13:58:54;;;;;;;7.93;3.28;;;;;;;19.84;35.10;101210.09;5628941;31;34433;-56
2022/04/29 14:01:56;;;;;;;7.45;3.15;;;;;;;19.90;31.58;101200.63;5625162;31;33723;-56
2022/04/29 14:05:01;;;;;;;5.85;3.28;;;;;;;19.90;28.01;101202.53;5608338;31;34304;-56
2022/04/29 14:08:03;;;;;;;4.70;3.10;;;;;;;20.01;26.31;101200.28;5608626;31;33985;-56
2022/04/29 14:11:05;;;;;;;6.47;3.15;;;;;;;20.06;29.69;101195.44;5608610;31;34453;-56
2022/04/29 14:14:08;;;;;;;4.40;3.05;;;;;;;20.11;27.41;101189.84;5608704;31;33818;-55
2022/04/29 14:17:10;;;;;;;6.45;3.33;;;;;;;20.16;28.07;101188.88;5608718;31;34447;-56
2022/04/29 14:20:12;;;;;;;5.18;3.35;;;;;;;20.16;28.87;101177.97;5620131;31;33317;-55
2022/04/29 14:23:15;;;;;;;4.00;3.20;;;;;;;20.22;29.25;101184.06;5628403;31;33639;-56
2022/04/29 14:26:17;;;;;;;4.35;3.20;;;;;;;20.19;28.21;101186.28;5628112;31;33689;-55
2022/04/29 14:29:19;;;;;;;6.28;3.15;;;;;;;20.13;27.48;101184.88;5628142;31;34450;-55
2022/04/29 14:32:22;;;;;;;4.43;3.17;;;;;;;20.02;28.27;101188.28;5628551;31;34334;-57
2022/04/29 14:35:24;;;;;;;5.40;3.33;;;;;;;20.07;31.35;101188.12;5628596;31;33797;-56
2022/04/29 14:38:27;;;;;;;7.45;3.28;;;;;;;19.99;28.58;101181.53;5628501;31;33749;-55
2022/04/29 14:41:29;;;;;;;4.57;3.20;;;;;;;19.85;32.14;101183.66;5628443;31;33717;-56
2022/04/29 14:44:32;;;;;;;4.05;3.10;;;;;;;19.76;28.23;101183.66;5626658;31;33679;-57
2022/04/29 14:47:36;;;;;;;7.62;3.45;;;;;;;19.67;30.94;101177.47;5608706;31;33989;-56
2022/04/29 14:50:39;;;;;;;7.78;3.53;;;;;;;19.71;26.91;101184.66;5608473;31;33742;-55
2022/04/29 14:53:41;;;;;;;6.03;3.50;;;;;;;19.73;26.62;101180.81;5608488;31;33688;-55
2022/04/29 14:56:43;;;;;;;4.90;3.08;;;;;;;19.72;26.94;101169.13;5608665;31;34309;-55
2022/04/29 14:59:45;;;;;;;6.05;3.70;;;;;;;19.66;27.19;101171.19;5608572;31;33360;-56
